createdAt,value
2022-09-12T00:01:45.454Z,15.25
2022-09-12T00:04:13.289Z,15.25
2022-09-12T00:06:42.498Z,15.23
2022-09-12T00:09:30.234Z,15.22
2022-09-12T00:11:58.052Z,15.19
2022-09-12T00:14:28.031Z,15.17
2022-09-12T00:17:00.214Z,15.16
2022-09-12T00:19:40.379Z,15.15
2022-09-12T00:22:11.404Z,15.13
2022-09-12T00:24:41.017Z,15.13
2022-09-12T00:27:09.386Z,15.13
2022-09-12T00:29:37.743Z,15.12
2022-09-12T00:32:06.661Z,15.13
2022-09-12T00:34:34.974Z,15.13
2022-09-12T00:37:03.864Z,15.13
2022-09-12T00:39:31.993Z,15.11
2022-09-12T00:41:59.845Z,15.11
2022-09-12T00:44:34.823Z,15.10
2022-09-12T00:47:11.256Z,15.12
2022-09-12T00:49:51.552Z,15.13
2022-09-12T00:52:28.513Z,15.12
2022-09-12T00:55:28.142Z,15.12
2022-09-12T00:58:05.450Z,15.11
2022-09-12T01:00:34.631Z,15.10
2022-09-12T01:03:11.619Z,15.10
2022-09-12T01:06:10.987Z,15.10
2022-09-12T01:08:43.881Z,15.10
2022-09-12T01:11:13.622Z,15.10
2022-09-12T01:13:57.147Z,15.10
2022-09-12T01:16:46.701Z,15.07
2022-09-12T01:19:25.721Z,15.07
2022-09-12T01:22:21.047Z,15.04
2022-09-12T01:25:04.336Z,15.02
2022-09-12T01:28:04.654Z,15.01
2022-09-12T01:31:01.098Z,14.99
2022-09-12T01:33:48.593Z,14.98
2022-09-12T01:36:26.367Z,14.97
2022-09-12T01:39:14.186Z,14.97
2022-09-12T01:41:54.620Z,14.96
2022-09-12T01:44:45.265Z,14.94
2022-09-12T01:47:26.466Z,14.94
2022-09-12T01:50:03.180Z,14.93
2022-09-12T01:52:41.654Z,14.93
2022-09-12T01:55:45.639Z,14.92
2022-09-12T01:58:34.181Z,14.90
2022-09-12T02:01:04.898Z,14.87
2022-09-12T02:03:41.835Z,14.84
2022-09-12T02:06:19.909Z,14.81
2022-09-12T02:09:04.674Z,14.78
2022-09-12T02:11:41.845Z,14.77
2022-09-12T02:14:21.416Z,14.75
2022-09-12T02:16:55.673Z,14.74
2022-09-12T02:19:51.563Z,14.73
2022-09-12T02:22:31.971Z,14.72
2022-09-12T02:25:05.629Z,14.71
2022-09-12T02:28:02.169Z,14.70
2022-09-12T02:30:39.956Z,14.69
2022-09-12T02:33:50.162Z,14.68
2022-09-12T02:36:35.083Z,14.67
2022-09-12T02:39:04.517Z,14.66
2022-09-12T02:41:33.267Z,14.66
2022-09-12T02:44:05.850Z,14.66
2022-09-12T02:46:41.278Z,14.66
2022-09-12T02:49:11.064Z,14.65
2022-09-12T02:51:42.098Z,14.65
2022-09-12T02:54:11.972Z,14.63
2022-09-12T02:56:43.840Z,14.59
2022-09-12T02:59:18.537Z,14.55
2022-09-12T03:02:10.264Z,14.53
2022-09-12T03:05:01.030Z,14.52
2022-09-12T03:07:47.846Z,14.52
2022-09-12T03:10:33.807Z,14.51
2022-09-12T03:13:44.166Z,14.47
2022-09-12T03:16:36.838Z,14.46
2022-09-12T03:19:31.282Z,14.44
2022-09-12T03:22:19.569Z,14.43
2022-09-12T03:25:18.368Z,14.40
2022-09-12T03:27:48.496Z,14.38
2022-09-12T03:30:17.076Z,14.36
2022-09-12T03:32:52.907Z,14.32
2022-09-12T03:35:23.765Z,14.29
2022-09-12T03:37:54.145Z,14.24
2022-09-12T03:40:25.131Z,14.21
2022-09-12T03:42:53.869Z,14.17
2022-09-12T03:45:22.867Z,14.14
2022-09-12T03:47:51.798Z,14.12
2022-09-12T03:50:23.181Z,14.11
2022-09-12T03:52:56.138Z,14.10
2022-09-12T03:55:28.365Z,14.10
2022-09-12T03:57:57.749Z,14.11
2022-09-12T04:00:26.529Z,14.14
2022-09-12T04:02:57.166Z,14.15
2022-09-12T04:05:26.476Z,14.18
2022-09-12T04:07:54.352Z,14.20
2022-09-12T04:10:23.790Z,14.21
2022-09-12T04:12:59.178Z,14.23
2022-09-12T04:15:31.837Z,14.26
2022-09-12T04:18:05.730Z,14.30
2022-09-12T04:20:39.657Z,14.32
2022-09-12T04:23:11.984Z,14.33
2022-09-12T04:25:41.412Z,14.33
2022-09-12T04:28:10.898Z,14.33
2022-09-12T04:30:46.077Z,14.34
2022-09-12T04:33:15.661Z,14.33
2022-09-12T04:35:50.528Z,14.32
2022-09-12T04:38:46.289Z,14.33
2022-09-12T04:41:25.656Z,14.33
2022-09-12T04:43:58.492Z,14.33
2022-09-12T04:46:26.741Z,14.34
2022-09-12T04:48:57.100Z,14.33
2022-09-12T04:51:29.221Z,14.34
2022-09-12T04:54:00.870Z,14.35
2022-09-12T04:56:30.883Z,14.36
2022-09-12T04:59:00.774Z,14.38
2022-09-12T05:01:32.199Z,14.39
2022-09-12T05:04:06.115Z,14.39
2022-09-12T05:06:41.983Z,14.40
2022-09-12T05:09:14.186Z,14.44
2022-09-12T05:12:03.670Z,14.49
2022-09-12T05:14:35.211Z,14.55
2022-09-12T05:17:07.837Z,14.59
2022-09-12T05:19:36.113Z,14.66
2022-09-12T05:22:06.756Z,14.88
2022-09-12T05:24:35.369Z,15.25
2022-09-12T05:27:04.855Z,15.53
2022-09-12T05:29:37.813Z,15.78
2022-09-12T05:32:05.755Z,16.00
2022-09-12T05:34:33.888Z,16.16
2022-09-12T05:37:02.150Z,16.29
2022-09-12T05:39:30.764Z,16.40
2022-09-12T05:41:59.254Z,16.46
2022-09-12T05:44:54.462Z,16.36
2022-09-12T05:47:23.654Z,16.13
2022-09-12T05:49:52.651Z,15.99
2022-09-12T05:52:21.403Z,15.90
2022-09-12T05:54:50.084Z,15.84
2022-09-12T05:57:20.694Z,15.80
2022-09-12T05:59:49.844Z,15.79
2022-09-12T06:02:18.388Z,15.80
2022-09-12T06:04:47.293Z,15.77
2022-09-12T06:07:18.530Z,15.77
2022-09-12T06:09:46.327Z,15.79
2022-09-12T06:12:14.570Z,15.84
2022-09-12T06:14:42.637Z,15.87
2022-09-12T06:17:12.075Z,15.88
2022-09-12T06:19:40.628Z,15.91
2022-09-12T06:22:08.616Z,15.96
2022-09-12T06:24:36.836Z,16.01
2022-09-12T06:27:05.276Z,16.04
2022-09-12T06:29:33.426Z,16.08
2022-09-12T06:32:01.984Z,16.05
2022-09-12T06:34:31.147Z,16.04
2022-09-12T06:36:58.986Z,16.07
2022-09-12T06:39:27.137Z,16.12
2022-09-12T06:41:55.751Z,16.14
2022-09-12T06:44:33.993Z,16.15
2022-09-12T06:47:02.554Z,16.15
2022-09-12T06:49:33.279Z,16.15
2022-09-12T06:52:04.073Z,16.15
2022-09-12T06:54:32.305Z,16.16
2022-09-12T06:57:02.257Z,16.20
2022-09-12T06:59:31.695Z,16.26
2022-09-12T07:02:01.727Z,16.32
2022-09-12T07:04:34.435Z,16.36
2022-09-12T07:07:02.986Z,16.39
2022-09-12T07:09:45.061Z,16.42
2022-09-12T07:12:12.848Z,16.59
2022-09-12T07:14:41.924Z,16.83
2022-09-12T07:17:11.045Z,17.01
2022-09-12T07:19:39.383Z,17.04
2022-09-12T07:22:08.116Z,17.08
2022-09-12T07:24:36.158Z,17.12
2022-09-12T07:27:04.035Z,17.21
2022-09-12T07:29:36.843Z,17.27
2022-09-12T07:32:08.883Z,17.25
2022-09-12T07:34:36.802Z,17.22
2022-09-12T07:37:06.193Z,17.12
2022-09-12T07:39:34.215Z,17.06
2022-09-12T07:42:06.157Z,16.94
2022-09-12T07:44:35.268Z,16.89
2022-09-12T07:47:05.215Z,16.91
2022-09-12T07:49:33.498Z,16.98
2022-09-12T07:52:02.759Z,17.01
2022-09-12T07:54:33.585Z,16.94
2022-09-12T07:57:01.954Z,17.01
2022-09-12T07:59:51.409Z,17.13
2022-09-12T08:02:18.799Z,17.15
2022-09-12T08:04:59.689Z,17.03
2022-09-12T08:07:27.440Z,17.00
2022-09-12T08:09:55.601Z,16.96
2022-09-12T08:12:23.644Z,16.87
2022-09-12T08:14:51.921Z,16.80
2022-09-12T08:17:20.210Z,16.86
2022-09-12T08:19:49.346Z,16.88
2022-09-12T08:22:21.986Z,16.85
2022-09-12T08:24:51.120Z,16.88
2022-09-12T08:27:20.006Z,17.04
2022-09-12T08:29:48.467Z,17.28
2022-09-12T08:32:17.387Z,17.36
2022-09-12T08:34:45.438Z,17.43
2022-09-12T08:37:14.015Z,17.44
2022-09-12T08:39:42.118Z,17.44
2022-09-12T08:42:14.127Z,17.57
2022-09-12T08:45:08.305Z,17.64
2022-09-12T08:47:47.179Z,17.56
2022-09-12T08:50:22.160Z,17.58
2022-09-12T08:53:14.422Z,17.63
2022-09-12T08:55:59.019Z,17.69
2022-09-12T08:58:30.137Z,17.80
2022-09-12T09:01:39.596Z,17.96
2022-09-12T09:04:11.140Z,18.21
2022-09-12T09:07:00.180Z,18.30
2022-09-12T09:09:44.858Z,18.48
2022-09-12T09:12:28.154Z,18.64
2022-09-12T09:15:12.305Z,18.73
2022-09-12T09:18:13.437Z,18.74
2022-09-12T09:20:58.638Z,18.85
2022-09-12T09:23:42.532Z,18.98
2022-09-12T09:26:26.651Z,18.93
2022-09-12T09:29:26.228Z,18.75
2022-09-12T09:31:58.007Z,18.47
2022-09-12T09:34:31.567Z,18.36
2022-09-12T09:37:23.439Z,18.39
2022-09-12T09:40:02.722Z,18.43
2022-09-12T09:42:49.129Z,18.50
2022-09-12T09:45:20.737Z,18.55
2022-09-12T09:47:54.630Z,18.52
2022-09-12T09:50:23.130Z,18.37
2022-09-12T09:52:54.085Z,18.17
2022-09-12T09:55:28.247Z,18.06
2022-09-12T09:57:56.766Z,18.25
2022-09-12T10:00:32.369Z,18.51
2022-09-12T10:03:14.091Z,18.60
2022-09-12T10:05:54.002Z,18.54
2022-09-12T10:08:24.913Z,18.57
2022-09-12T10:11:02.909Z,18.78
2022-09-12T10:13:39.653Z,19.03
2022-09-12T10:16:20.606Z,18.97
2022-09-12T10:18:53.892Z,18.98
2022-09-12T10:21:35.985Z,18.91
2022-09-12T10:24:27.508Z,18.93
2022-09-12T10:27:05.726Z,19.11
2022-09-12T10:30:03.135Z,19.10
2022-09-12T10:32:41.795Z,19.16
2022-09-12T10:35:28.095Z,19.35
2022-09-12T10:38:00.324Z,19.56
2022-09-12T10:40:36.201Z,19.89
2022-09-12T10:43:18.640Z,20.24
2022-09-12T10:45:47.139Z,20.61
2022-09-12T10:48:32.702Z,20.87
2022-09-12T10:51:02.206Z,20.56
2022-09-12T10:53:41.750Z,19.95
2022-09-12T10:56:15.568Z,19.67
2022-09-12T10:59:04.175Z,19.47
2022-09-12T11:01:47.302Z,19.33
2022-09-12T11:04:42.225Z,19.42
2022-09-12T11:07:33.500Z,19.57
2022-09-12T11:10:18.324Z,19.67
2022-09-12T11:13:04.106Z,19.82
2022-09-12T11:16:05.290Z,19.84
2022-09-12T11:18:42.450Z,19.91
2022-09-12T11:21:21.699Z,20.00
2022-09-12T11:24:17.921Z,20.21
2022-09-12T11:27:06.489Z,20.50
2022-09-12T11:29:59.437Z,20.61
2022-09-12T11:32:50.520Z,20.62
2022-09-12T11:35:35.970Z,20.63
2022-09-12T11:38:39.324Z,20.61
2022-09-12T11:41:20.426Z,20.65
2022-09-12T11:43:58.045Z,20.71
2022-09-12T11:46:36.939Z,20.78
2022-09-12T11:49:15.428Z,20.94
2022-09-12T11:51:46.559Z,21.02
2022-09-12T11:54:26.355Z,21.07
2022-09-12T11:57:19.059Z,21.02
2022-09-12T11:59:57.052Z,20.98
2022-09-12T12:03:02.958Z,21.09
2022-09-12T12:06:04.236Z,21.20
2022-09-12T12:08:40.993Z,21.32
2022-09-12T12:11:10.931Z,21.39
2022-09-12T12:14:04.786Z,21.42
2022-09-12T12:16:39.050Z,21.42
2022-09-12T12:19:14.527Z,21.48
2022-09-12T12:21:47.599Z,21.61
2022-09-12T12:24:23.646Z,21.62
2022-09-12T12:27:07.532Z,21.66
2022-09-12T12:29:44.137Z,21.68
2022-09-12T12:32:13.339Z,21.57
2022-09-12T12:34:43.108Z,21.56
2022-09-12T12:37:25.671Z,21.68
2022-09-12T12:40:23.782Z,21.78
2022-09-12T12:43:05.079Z,21.73
2022-09-12T12:45:36.346Z,21.63
2022-09-12T12:48:15.057Z,21.63
2022-09-12T12:50:43.420Z,21.82
2022-09-12T12:53:24.326Z,22.00
2022-09-12T12:55:55.892Z,22.05
2022-09-12T12:58:39.773Z,22.19
2022-09-12T13:01:13.634Z,22.41
2022-09-12T13:03:46.332Z,22.41
2022-09-12T13:06:45.680Z,22.16
2022-09-12T13:09:57.534Z,21.83
2022-09-12T13:12:34.291Z,21.64
2022-09-12T13:15:06.327Z,21.58
2022-09-12T13:17:37.244Z,21.51
2022-09-12T13:20:28.637Z,21.43
2022-09-12T13:22:58.406Z,21.30
2022-09-12T13:25:34.088Z,21.12
2022-09-12T13:28:14.014Z,20.84
2022-09-12T13:31:00.518Z,20.60
2022-09-12T13:33:44.168Z,20.50
2022-09-12T13:37:10.414Z,20.37
2022-09-12T13:39:49.945Z,20.15
2022-09-12T13:42:39.134Z,19.93
2022-09-12T13:45:16.444Z,19.85
2022-09-12T13:47:47.209Z,19.84
2022-09-12T13:50:20.378Z,19.82
2022-09-12T13:52:54.324Z,19.80
2022-09-12T13:55:42.096Z,19.70
2022-09-12T13:58:33.831Z,19.65
2022-09-12T14:01:16.482Z,19.63
2022-09-12T14:04:14.629Z,19.60
2022-09-12T14:06:50.674Z,19.57
2022-09-12T14:09:30.424Z,19.57
2022-09-12T14:11:59.118Z,19.58
2022-09-12T14:14:33.024Z,19.60
2022-09-12T14:17:00.945Z,19.62
2022-09-12T14:19:30.440Z,19.64
2022-09-12T14:21:58.772Z,19.65
2022-09-12T14:24:27.290Z,19.65
2022-09-12T14:26:56.937Z,19.73
2022-09-12T14:29:27.019Z,19.82
2022-09-12T14:32:05.502Z,19.89
2022-09-12T14:34:34.291Z,19.94
2022-09-12T14:37:06.519Z,20.04
2022-09-12T14:39:44.870Z,20.15
2022-09-12T14:42:18.015Z,20.26
2022-09-12T14:45:16.138Z,20.26
2022-09-12T14:47:49.159Z,20.22
2022-09-12T14:50:24.969Z,20.20
2022-09-12T14:53:35.080Z,20.18
2022-09-12T14:56:09.740Z,20.10
2022-09-12T14:58:42.128Z,20.06
2022-09-12T15:01:13.343Z,19.99
2022-09-12T15:03:49.275Z,19.98
2022-09-12T15:06:27.845Z,20.01
2022-09-12T15:08:58.377Z,20.04
2022-09-12T15:11:26.532Z,20.04
2022-09-12T15:13:55.169Z,20.04
2022-09-12T15:16:23.096Z,20.00
2022-09-12T15:18:51.274Z,19.95
2022-09-12T15:21:21.286Z,19.92
2022-09-12T15:23:51.321Z,19.90
2022-09-12T15:26:24.201Z,19.89
2022-09-12T15:28:56.175Z,19.80
2022-09-12T15:31:33.689Z,19.63
2022-09-12T15:34:03.588Z,19.51
2022-09-12T15:36:33.043Z,19.39
2022-09-12T15:39:01.982Z,19.26
2022-09-12T15:41:38.277Z,19.16
2022-09-12T15:44:17.872Z,19.08
2022-09-12T15:46:46.703Z,18.98
2022-09-12T15:49:14.573Z,18.96
2022-09-12T15:51:43.532Z,19.00
2022-09-12T15:54:17.598Z,19.00
2022-09-12T15:56:45.458Z,18.97
2022-09-12T15:59:13.749Z,18.99
2022-09-12T16:01:42.086Z,19.03
2022-09-12T16:04:26.016Z,19.03
2022-09-12T16:06:56.223Z,19.02
2022-09-12T16:09:24.603Z,19.05
2022-09-12T16:11:53.163Z,19.07
2022-09-12T16:14:21.374Z,19.05
2022-09-12T16:16:54.476Z,19.04
2022-09-12T16:19:22.622Z,19.03
2022-09-12T16:21:53.764Z,18.97
2022-09-12T16:24:22.252Z,18.95
2022-09-12T16:26:50.135Z,18.92
2022-09-12T16:29:22.916Z,18.87
2022-09-12T16:31:51.343Z,18.81
2022-09-12T16:34:19.441Z,18.73
2022-09-12T16:36:48.287Z,18.60
2022-09-12T16:39:16.762Z,18.51
2022-09-12T16:41:50.314Z,18.44
2022-09-12T16:44:26.193Z,18.39
2022-09-12T16:46:55.558Z,18.34
2022-09-12T16:49:23.922Z,18.28
2022-09-12T16:51:53.094Z,18.22
2022-09-12T16:54:26.653Z,18.15
2022-09-12T16:56:57.928Z,18.07
2022-09-12T16:59:28.164Z,18.00
2022-09-12T17:01:57.471Z,17.92
2022-09-12T17:04:25.841Z,17.83
2022-09-12T17:07:01.022Z,17.74
2022-09-12T17:09:31.965Z,17.64
2022-09-12T17:12:05.040Z,17.55
2022-09-12T17:14:33.518Z,17.45
2022-09-12T17:17:02.056Z,17.36
2022-09-12T17:19:33.474Z,17.26
2022-09-12T17:22:01.535Z,17.17
2022-09-12T17:24:32.013Z,17.08
2022-09-12T17:27:42.888Z,16.97
2022-09-12T17:30:13.935Z,16.84
2022-09-12T17:32:42.498Z,16.75
2022-09-12T17:35:13.908Z,16.66
2022-09-12T17:37:42.751Z,16.59
2022-09-12T17:40:14.324Z,16.50
2022-09-12T17:42:46.198Z,16.41
2022-09-12T17:45:18.317Z,16.33
2022-09-12T17:47:48.543Z,16.26
2022-09-12T17:50:31.432Z,16.18
2022-09-12T17:53:01.574Z,16.10
2022-09-12T17:55:32.831Z,16.04
2022-09-12T17:58:04.279Z,15.99
2022-09-12T18:00:51.929Z,15.93
2022-09-12T18:03:24.948Z,15.88
2022-09-12T18:05:56.840Z,15.82
2022-09-12T18:08:26.091Z,15.77
2022-09-12T18:10:55.372Z,15.74
2022-09-12T18:13:23.708Z,15.70
2022-09-12T18:15:52.775Z,15.67
2022-09-12T18:18:21.414Z,15.63
2022-09-12T18:20:53.043Z,15.61
2022-09-12T18:23:21.459Z,15.59
2022-09-12T18:25:49.612Z,15.57
2022-09-12T18:28:19.363Z,15.55
2022-09-12T18:30:47.748Z,15.52
2022-09-12T18:33:24.200Z,15.49
2022-09-12T18:35:53.449Z,15.46
2022-09-12T18:38:22.648Z,15.43
2022-09-12T18:40:51.045Z,15.39
2022-09-12T18:43:19.340Z,15.36
2022-09-12T18:45:48.807Z,15.31
2022-09-12T18:48:19.342Z,15.27
2022-09-12T18:50:47.917Z,15.23
2022-09-12T18:53:20.378Z,15.19
2022-09-12T18:55:50.723Z,15.16
2022-09-12T18:58:19.615Z,15.12
2022-09-12T19:00:50.079Z,15.08
2022-09-12T19:03:19.002Z,15.05
2022-09-12T19:05:50.571Z,15.02
2022-09-12T19:08:28.705Z,14.98
2022-09-12T19:10:57.901Z,14.96
2022-09-12T19:13:29.517Z,14.92
2022-09-12T19:15:59.859Z,14.89
2022-09-12T19:18:27.982Z,14.85
2022-09-12T19:20:55.877Z,14.80
2022-09-12T19:23:24.114Z,14.75
2022-09-12T19:25:58.002Z,14.70
2022-09-12T19:28:31.124Z,14.64
2022-09-12T19:30:59.468Z,14.57
2022-09-12T19:33:27.680Z,14.50
2022-09-12T19:35:56.027Z,14.45
2022-09-12T19:38:24.810Z,14.42
2022-09-12T19:41:00.808Z,14.38
2022-09-12T19:43:30.090Z,14.35
2022-09-12T19:45:59.470Z,14.31
2022-09-12T19:48:28.926Z,14.28
2022-09-12T19:51:02.109Z,14.25
2022-09-12T19:53:31.216Z,14.21
2022-09-12T19:56:04.275Z,14.18
2022-09-12T19:58:38.318Z,14.15
2022-09-12T20:01:23.163Z,14.11
2022-09-12T20:04:11.499Z,14.06
2022-09-12T20:06:40.395Z,14.02
2022-09-12T20:09:11.175Z,13.97
2022-09-12T20:11:38.999Z,13.94
2022-09-12T20:14:08.238Z,13.90
2022-09-12T20:16:36.887Z,13.87
2022-09-12T20:19:09.973Z,13.83
2022-09-12T20:21:39.341Z,13.79
2022-09-12T20:24:12.910Z,13.75
2022-09-12T20:26:42.033Z,13.71
2022-09-12T20:29:11.079Z,13.67
2022-09-12T20:31:41.726Z,13.63
2022-09-12T20:34:19.158Z,13.60
2022-09-12T20:36:50.285Z,13.56
2022-09-12T20:39:20.996Z,13.52
2022-09-12T20:41:49.703Z,13.48
2022-09-12T20:44:18.037Z,13.46
2022-09-12T20:46:46.902Z,13.44
2022-09-12T20:49:36.163Z,13.43
2022-09-12T20:52:04.859Z,13.40
2022-09-12T20:54:32.723Z,13.39
2022-09-12T20:57:02.171Z,13.37
2022-09-12T20:59:30.122Z,13.36
2022-09-12T21:01:59.501Z,13.35
2022-09-12T21:04:28.341Z,13.34
2022-09-12T21:06:56.513Z,13.33
2022-09-12T21:09:25.073Z,13.32
2022-09-12T21:11:53.792Z,13.30
2022-09-12T21:14:22.173Z,13.29
2022-09-12T21:16:50.851Z,13.28
2022-09-12T21:19:19.132Z,13.26
2022-09-12T21:21:47.291Z,13.23
2022-09-12T21:24:15.789Z,13.21
2022-09-12T21:26:43.701Z,13.19
2022-09-12T21:29:12.350Z,13.17
2022-09-12T21:31:40.166Z,13.15
2022-09-12T21:34:10.964Z,13.13
2022-09-12T21:36:40.066Z,13.12
2022-09-12T21:39:09.094Z,13.10
2022-09-12T21:41:37.902Z,13.09
2022-09-12T21:44:08.204Z,13.07
2022-09-12T21:46:36.536Z,13.04
2022-09-12T21:49:05.919Z,13.02
2022-09-12T21:51:36.129Z,13.00
2022-09-12T21:54:04.468Z,12.97
2022-09-12T21:56:36.814Z,12.94
2022-09-12T21:59:08.092Z,12.92
2022-09-12T22:01:39.038Z,12.89
2022-09-12T22:04:10.929Z,12.87
2022-09-12T22:06:39.483Z,12.85
2022-09-12T22:09:08.024Z,12.83
2022-09-12T22:11:36.844Z,12.81
2022-09-12T22:14:05.323Z,12.76
2022-09-12T22:16:33.920Z,12.72
2022-09-12T22:19:04.348Z,12.71
2022-09-12T22:21:56.125Z,12.68
2022-09-12T22:24:30.426Z,12.66
2022-09-12T22:27:03.336Z,12.63
2022-09-12T22:29:36.095Z,12.59
2022-09-12T22:32:05.478Z,12.56
2022-09-12T22:34:35.171Z,12.54
2022-09-12T22:37:28.352Z,12.52
2022-09-12T22:39:56.631Z,12.49
2022-09-12T22:42:26.794Z,12.47
2022-09-12T22:44:54.714Z,12.45
2022-09-12T22:47:23.268Z,12.44
2022-09-12T22:49:57.212Z,12.42
2022-09-12T22:52:26.559Z,12.41
2022-09-12T22:54:55.257Z,12.40
2022-09-12T22:57:23.787Z,12.39
2022-09-12T22:59:52.987Z,12.38
2022-09-12T23:02:20.907Z,12.37
2022-09-12T23:04:52.301Z,12.36
2022-09-12T23:07:20.546Z,12.34
2022-09-12T23:09:48.713Z,12.33
2022-09-12T23:12:17.222Z,12.32
2022-09-12T23:14:44.974Z,12.30
2022-09-12T23:17:15.631Z,12.28
2022-09-12T23:19:44.135Z,12.26
2022-09-12T23:22:12.697Z,12.24
2022-09-12T23:24:41.338Z,12.22
2022-09-12T23:27:09.309Z,12.20
2022-09-12T23:29:37.121Z,12.17
2022-09-12T23:32:08.079Z,12.15
2022-09-12T23:34:35.925Z,12.13
2022-09-12T23:37:04.682Z,12.10
2022-09-12T23:39:40.221Z,12.07
2022-09-12T23:42:09.880Z,12.04
2022-09-12T23:44:38.792Z,12.01
2022-09-12T23:47:07.137Z,11.98
2022-09-12T23:49:35.867Z,11.97
2022-09-12T23:52:04.243Z,11.97
2022-09-12T23:54:33.024Z,11.96
2022-09-12T23:57:01.330Z,11.95
2022-09-12T23:59:31.169Z,11.94
